»·PEaware :: SWA302 KBLI-KOAK

SWA302 :: KBLI-KOAK

FLIGHT INFORMATION

Flight Status: Arrived
Operator:
Southwest Airlines
More flights by this operator :: More flights under this callsign
Pilot: Daniel W. (24238)
Aircraft: BOEING 737-700
(B737)
More flights by this aircraft type
Origin: KBLI Bellingham Intl
United States
Destination: KOAK Metro Oakland Intl
United States
More flights between these airports :: More routes between these airports
Route: KIENO6 CVV HAROB HISKU Q5 HUPTU SPAMY WNDSR2
File this flight plan on PilotEdge
Remarks: PBN / A1D1O1S2T1 NAV / RNVD1E1A1 RNP10 DAT / 1FANSE2PDC REG / N750SA EET / KZOA0101 CODE / AA1B9A TALT / KEAT
Altitude:
(Current/Filed)
39,000ft
Speed:
(Current/Filed)
448kts
Departed: 19-Oct-22 04:57 AM
Arrived: 19-Oct-22 06:35 AM
Distance/Time
Traveled:
665nm/1:38
Distance/Time
To Go:
Arrived

Flight Plot

Page will automatically refresh every two minutes.

Flight plan parsing failed; only flown route is shown


Map Options




Map Legend


Flown Route
Filed Route
Departure Airport
Arrival Airport
Navaid (VOR, NDB)
Fix

Horizontal Profiles

Position Reports

Time Latitude Longitude Heading Altitude Ground
Speed
19-Oct-22 04:11 48.795033 -122.533608 51 174ft 0kts
19-Oct-22 04:12 48.795033 -122.533608 51 174ft 0kts
19-Oct-22 04:13 48.795033 -122.533608 51 174ft 0kts
19-Oct-22 04:14 48.795033 -122.533608 51 174ft 0kts
19-Oct-22 04:15 48.795033 -122.533608 51 174ft 0kts
19-Oct-22 04:16 48.795033 -122.533608 51 174ft 0kts
19-Oct-22 04:17 48.795033 -122.533608 51 174ft 0kts
19-Oct-22 04:18 48.795033 -122.533608 51 174ft 0kts
19-Oct-22 04:19 48.795033 -122.533608 51 174ft 0kts
19-Oct-22 04:20 48.795033 -122.533608 51 174ft 0kts
19-Oct-22 04:21 48.795033 -122.533608 51 174ft 0kts
19-Oct-22 04:22 48.795033 -122.533608 51 174ft 0kts
19-Oct-22 04:23 48.795033 -122.533608 51 174ft 0kts
19-Oct-22 04:24 48.795033 -122.533608 51 174ft 0kts
19-Oct-22 04:25 48.795033 -122.533608 51 174ft 0kts
19-Oct-22 04:26 48.795033 -122.533608 51 174ft 0kts
19-Oct-22 04:26 48.795033 -122.533608 51 174ft 0kts
19-Oct-22 04:28 48.795033 -122.533608 51 174ft 0kts
19-Oct-22 04:29 48.795033 -122.533608 51 174ft 0kts
19-Oct-22 04:30 48.795033 -122.533608 51 174ft 0kts
19-Oct-22 04:31 48.795033 -122.533608 51 174ft 0kts
19-Oct-22 04:31 48.795033 -122.533608 51 174ft 0kts
19-Oct-22 04:32 48.795033 -122.533608 51 174ft 0kts
19-Oct-22 04:33 48.795033 -122.533608 51 174ft 0kts
19-Oct-22 04:34 48.795033 -122.533608 51 174ft 0kts
19-Oct-22 04:36 48.795033 -122.533608 51 174ft 0kts
19-Oct-22 04:36 48.795033 -122.533608 51 174ft 0kts
19-Oct-22 04:37 48.795033 -122.533608 51 174ft 0kts
19-Oct-22 04:38 48.795033 -122.533608 51 174ft 0kts
19-Oct-22 04:39 48.795033 -122.533608 51 174ft 0kts
19-Oct-22 04:40 48.795033 -122.533608 51 174ft 0kts
19-Oct-22 04:41 48.795033 -122.533608 51 174ft 0kts
19-Oct-22 04:42 48.795033 -122.533608 51 174ft 0kts
19-Oct-22 04:43 48.795033 -122.533608 51 174ft 0kts
19-Oct-22 04:44 48.795033 -122.533608 51 174ft 0kts
19-Oct-22 04:45 48.795033 -122.533608 51 174ft 0kts
19-Oct-22 04:46 48.795033 -122.533608 51 174ft 0kts
19-Oct-22 04:47 48.795033 -122.533608 51 174ft 0kts
19-Oct-22 04:48 48.794819 -122.534024 52 174ft 2kts
19-Oct-22 04:49 48.794676 -122.534301 51 174ft 0kts
19-Oct-22 04:50 48.794676 -122.534301 51 174ft 0kts
19-Oct-22 04:51 48.794676 -122.534301 51 174ft 0kts
19-Oct-22 04:52 48.794676 -122.534301 51 174ft 0kts
19-Oct-22 04:53 48.796122 -122.535119 358 173ft 16kts
19-Oct-22 04:54 48.800189 -122.535831 7 172ft 13kts
19-Oct-22 04:55 48.800911 -122.537587 179 172ft 8kts
19-Oct-22 04:56 48.769927 -122.539071 199 1515ft 174kts
19-Oct-22 04:57 48.712285 -122.579889 195 4130ft 266kts
19-Oct-22 04:58 48.637341 -122.585679 194 8282ft 276kts
19-Oct-22 04:59 48.557706 -122.615346 195 11004ft 334kts
19-Oct-22 05:00 48.463959 -122.648466 195 14245ft 356kts
19-Oct-22 05:01 48.364504 -122.682999 194 17125ft 377kts
19-Oct-22 05:02 48.259536 -122.719300 194 19698ft 398kts
19-Oct-22 05:03 48.147754 -122.755724 192 21911ft 421kts
19-Oct-22 05:04 48.030543 -122.793130 192 23914ft 442kts
19-Oct-22 05:05 47.907783 -122.832266 192 25687ft 457kts
19-Oct-22 05:06 47.781311 -122.872396 192 27309ft 473kts
19-Oct-22 05:07 47.650490 -122.913695 192 28812ft 488kts
19-Oct-22 05:08 47.515849 -122.955979 192 30220ft 502kts
19-Oct-22 05:09 47.377686 -122.999139 192 31438ft 512kts
19-Oct-22 05:10 47.237849 -123.040141 185 32970ft 511kts
19-Oct-22 05:11 47.096304 -123.036184 177 34435ft 509kts
19-Oct-22 05:12 46.955140 -123.030318 178 35674ft 506kts
19-Oct-22 05:13 46.814483 -123.025192 178 36797ft 504kts
19-Oct-22 05:14 46.674917 -123.020113 178 37849ft 502kts
19-Oct-22 05:15 46.535382 -123.015049 178 38868ft 500kts
19-Oct-22 05:16 46.396284 -123.010022 178 39343ft 502kts
19-Oct-22 05:17 46.257310 -123.005033 177 39333ft 499kts
19-Oct-22 05:18 46.118077 -123.000055 177 39337ft 500kts
19-Oct-22 05:19 45.978977 -122.995110 177 39329ft 500kts
19-Oct-22 05:20 45.839966 -122.990194 177 39303ft 500kts
19-Oct-22 05:21 45.700798 -122.985289 177 39310ft 500kts
19-Oct-22 05:22 45.561509 -122.980413 176 39315ft 501kts
19-Oct-22 05:23 45.422223 -122.975559 176 39315ft 500kts
19-Oct-22 05:24 45.283242 -122.970738 176 39325ft 500kts
19-Oct-22 05:25 45.143931 -122.965934 176 39312ft 500kts
19-Oct-22 05:26 45.005374 -122.961173 175 39315ft 499kts
19-Oct-22 05:27 44.866093 -122.956409 175 39318ft 500kts
19-Oct-22 05:28 44.727206 -122.951685 175 39308ft 500kts
19-Oct-22 05:29 44.588234 -122.946979 175 39308ft 500kts
19-Oct-22 05:30 44.448798 -122.942398 175 39315ft 500kts
19-Oct-22 05:31 44.309750 -122.938177 175 39310ft 500kts
19-Oct-22 05:32 44.170559 -122.933941 175 39320ft 500kts
19-Oct-22 05:33 44.031662 -122.929729 175 39318ft 500kts
19-Oct-22 05:34 43.892764 -122.925539 175 39307ft 499kts
19-Oct-22 05:35 43.753818 -122.921366 175 39300ft 499kts
19-Oct-22 05:36 43.614714 -122.917205 175 39287ft 501kts
19-Oct-22 05:37 43.475466 -122.913062 175 39293ft 500kts
19-Oct-22 05:38 43.336475 -122.908938 174 39291ft 501kts
19-Oct-22 05:39 43.197361 -122.904845 175 39301ft 500kts
19-Oct-22 05:40 43.057885 -122.900742 175 39272ft 501kts
19-Oct-22 05:41 42.919024 -122.896688 174 39282ft 499kts
19-Oct-22 05:42 42.780599 -122.892662 174 39296ft 498kts
19-Oct-22 05:43 42.642154 -122.888649 174 39291ft 498kts
19-Oct-22 05:44 42.503959 -122.884655 174 39299ft 498kts
19-Oct-22 05:45 42.367157 -122.880692 174 39308ft 495kts
19-Oct-22 05:46 42.229869 -122.876677 174 39305ft 494kts
19-Oct-22 05:47 42.092604 -122.872697 174 39299ft 493kts
19-Oct-22 05:48 41.955466 -122.868731 174 39304ft 490kts
19-Oct-22 05:49 41.818979 -122.864781 174 39346ft 489kts
19-Oct-22 05:50 41.682971 -122.860897 174 39351ft 487kts
19-Oct-22 05:51 41.547826 -122.857028 175 39344ft 485kts
19-Oct-22 05:52 41.413071 -122.853189 175 39332ft 483kts
19-Oct-22 05:53 41.279333 -122.848227 174 39305ft 481kts
19-Oct-22 05:54 41.145725 -122.839744 174 39277ft 480kts
19-Oct-22 05:55 41.012494 -122.831726 174 39250ft 478kts
19-Oct-22 05:56 40.879065 -122.823830 174 39248ft 480kts
19-Oct-22 05:57 40.746288 -122.816009 174 39229ft 478kts
19-Oct-22 05:58 40.613497 -122.808211 174 39213ft 476kts
19-Oct-22 05:59 40.481126 -122.800462 174 39206ft 475kts
19-Oct-22 06:00 40.349339 -122.792786 175 39173ft 474kts
19-Oct-22 06:01 40.217995 -122.785161 175 39168ft 473kts
19-Oct-22 06:02 40.086543 -122.777566 175 39171ft 472kts
19-Oct-22 06:03 39.955424 -122.770011 175 39172ft 472kts
19-Oct-22 06:04 39.824091 -122.762474 175 38982ft 475kts
19-Oct-22 06:05 39.693077 -122.754996 175 36717ft 468kts
19-Oct-22 06:06 39.562220 -122.747524 175 33618ft 475kts
19-Oct-22 06:07 39.436527 -122.712329 155 31041ft 452kts
19-Oct-22 06:08 39.322019 -122.652749 157 28475ft 434kts
19-Oct-22 06:09 39.212518 -122.596887 158 26194ft 413kts
19-Oct-22 06:10 39.101456 -122.576938 174 24337ft 403kts
19-Oct-22 06:11 38.990647 -122.557163 168 22311ft 396kts
19-Oct-22 06:12 38.884968 -122.529463 168 20661ft 381kts
19-Oct-22 06:13 38.781641 -122.503615 168 19077ft 375kts
19-Oct-22 06:14 38.680333 -122.478437 168 17405ft 364kts
19-Oct-22 06:15 38.580724 -122.462966 172 15742ft 357kts
19-Oct-22 06:16 38.483072 -122.448438 171 14252ft 350kts
19-Oct-22 06:17 38.387362 -122.433885 172 12703ft 341kts
19-Oct-22 06:18 38.294348 -122.419780 172 11280ft 333kts
19-Oct-22 06:19 38.205665 -122.406286 172 9933ft 310kts
19-Oct-22 06:20 38.126610 -122.394170 172 9140ft 277kts
19-Oct-22 06:21 38.050790 -122.382566 173 7768ft 271kts
19-Oct-22 06:22 37.984128 -122.344352 142 6721ft 269kts
19-Oct-22 06:23 37.924506 -122.286821 143 6189ft 270kts
19-Oct-22 06:24 37.864613 -122.229664 143 5686ft 269kts
19-Oct-22 06:25 37.804514 -122.172528 142 5180ft 272kts
19-Oct-22 06:26 37.754036 -122.104329 126 5020ft 269kts
19-Oct-22 06:27 37.710273 -122.033186 130 4966ft 232kts
19-Oct-22 06:28 37.651313 -122.003256 162 3914ft 230kts
19-Oct-22 06:29 37.592522 -122.009142 237 2803ft 230kts
19-Oct-22 06:30 37.610027 -122.077297 312 2014ft 215kts
19-Oct-22 06:31 37.645895 -122.130763 312 1694ft 180kts
19-Oct-22 06:32 37.673849 -122.172751 310 875ft 139kts
19-Oct-22 06:33 37.698361 -122.209645 309 137ft 134kts
19-Oct-22 06:34 37.713781 -122.231261 341 16ft 22kts
19-Oct-22 06:35 37.712675 -122.227268 130 20ft 23kts
19-Oct-22 06:36 37.712869 -122.222407 57 16ft 14kts
19-Oct-22 06:37 37.709541 -122.217068 126 16ft 20kts
19-Oct-22 06:38 37.710496 -122.215697 298 15ft 0kts
19-Oct-22 06:39 37.710514 -122.215740 298 15ft 0kts
19-Oct-22 06:40 37.710514 -122.215740 298 15ft 0kts
19-Oct-22 06:41 37.710514 -122.215740 298 15ft 0kts
19-Oct-22 06:42 37.710514 -122.215740 298 15ft 0kts
19-Oct-22 06:43 37.710514 -122.215740 298 15ft 0kts
19-Oct-22 06:44 37.710514 -122.215740 298 15ft 0kts
19-Oct-22 06:45 37.710514 -122.215740 298 15ft 0kts
19-Oct-22 06:46 37.710514 -122.215740 298 15ft 0kts

Navigation Log

Ident Type
Flight plan parsing failed, navigation log unavailable